Time;durP1;ratioP1;P1;durP2;ratioP2;P2;SDS_P1;SDS_P2;PMS_P1;PMS_P2;Temp;Humidity;BMP_temperature;BMP_pressure;BME280_temperature;BME280_humidity;BME280_pressure;Samples;Min_cycle;Max_cycle;Signal;HPM_P1;HPM_P2
2023/05/09 00:00:30;;;;;;;6.47;5.72;;;;;;;14.49;56.33;98603.31;4981493;28;20108;-77
2023/05/09 00:02:55;;;;;;;6.43;5.80;;;;;;;14.46;55.23;98608.44;5014890;28;20076;-75
2023/05/09 00:05:21;;;;;;;5.68;5.18;;;;;;;14.55;54.85;98609.59;5015407;28;20120;-77
2023/05/09 00:07:47;;;;;;;6.07;5.10;;;;;;;14.54;54.57;98613.38;5015128;28;20509;-77
2023/05/09 00:10:13;;;;;;;5.95;5.35;;;;;;;14.54;54.80;98613.38;5016048;28;20029;-76
2023/05/09 00:12:38;;;;;;;5.80;5.20;;;;;;;14.55;54.42;98615.03;5015518;28;20037;-77
2023/05/09 00:15:07;;;;;;;5.95;5.45;;;;;;;14.52;55.29;98604.69;5015565;28;20112;-76
2023/05/09 00:17:32;;;;;;;5.97;5.35;;;;;;;14.27;55.52;98607.16;5006927;28;20033;-77
2023/05/09 00:20:00;;;;;;;6.57;5.35;;;;;;;14.46;53.54;98611.16;5014486;28;20025;-76
2023/05/09 00:22:25;;;;;;;5.60;5.03;;;;;;;14.41;53.76;98609.22;4998503;28;20029;-77
2023/05/09 00:24:51;;;;;;;5.38;4.88;;;;;;;14.54;53.12;98616.09;5014369;28;20021;-77
2023/05/09 00:27:24;;;;;;;5.35;4.85;;;;;;;14.58;51.99;98606.38;4998514;28;20042;-76
2023/05/09 00:29:52;;;;;;;6.68;5.32;;;;;;;14.47;52.43;98596.50;4988016;28;20388;-76
2023/05/09 00:32:17;;;;;;;5.30;4.80;;;;;;;14.35;52.85;98598.63;5032115;28;20037;-76
2023/05/09 00:34:43;;;;;;;6.43;4.97;;;;;;;14.44;51.65;98603.31;5007611;28;20068;-76
2023/05/09 00:37:08;;;;;;;6.60;5.90;;;;;;;14.38;53.33;98598.06;4998177;28;20036;-76
2023/05/09 00:39:34;;;;;;;7.38;5.20;;;;;;;14.43;53.01;98590.81;5014066;28;20073;-76
2023/05/09 00:42:02;;;;;;;6.53;5.82;;;;;;;14.37;52.69;98580.19;5014258;28;20447;-76
2023/05/09 00:44:27;;;;;;;6.10;5.50;;;;;;;14.52;52.52;98583.84;5013940;28;20029;-76
2023/05/09 00:46:53;;;;;;;6.25;5.65;;;;;;;14.57;52.45;98590.34;5014423;28;20047;-76
2023/05/09 00:49:19;;;;;;;6.50;5.80;;;;;;;14.54;52.53;98583.56;4997885;28;20038;-76
2023/05/09 00:51:45;;;;;;;6.07;5.47;;;;;;;14.60;51.75;98587.97;5014098;28;20044;-76
2023/05/09 00:54:10;;;;;;;5.72;5.13;;;;;;;14.42;53.81;98582.94;4997648;28;20034;-77
2023/05/09 00:56:36;;;;;;;6.22;5.63;;;;;;;14.38;52.94;98584.53;5014317;28;20068;-76
2023/05/09 00:59:02;;;;;;;6.30;5.60;;;;;;;14.45;54.42;98572.41;5014019;28;20332;-76
2023/05/09 01:01:27;;;;;;;6.00;5.40;;;;;;;14.30;55.47;98569.59;5032030;28;20487;-76
2023/05/09 01:03:53;;;;;;;6.03;5.43;;;;;;;14.17;55.80;98574.56;5032534;28;20044;-77
2023/05/09 01:06:19;;;;;;;6.38;5.43;;;;;;;14.04;57.02;98575.00;5014844;28;20469;-76
2023/05/09 01:09:03;;;;;;;5.75;5.20;;;;;;;14.07;58.03;98569.09;5014538;28;20132;-75
2023/05/09 01:11:33;;;;;;;6.18;5.60;;;;;;;13.86;57.50;98568.09;5003094;28;20033;-76
2023/05/09 01:14:20;;;;;;;6.45;5.50;;;;;;;13.83;57.71;98558.56;5000971;28;20025;-76
2023/05/09 01:17:00;;;;;;;5.63;5.13;;;;;;;13.97;57.79;98566.28;4993971;28;20042;-77
2023/05/09 01:19:41;;;;;;;6.15;5.65;;;;;;;13.82;59.05;98567.75;4989445;28;20464;-75
2023/05/09 01:22:08;;;;;;;6.03;5.47;;;;;;;13.90;59.18;98562.97;5017981;28;20475;-76
2023/05/09 01:24:52;;;;;;;6.03;5.47;;;;;;;13.63;58.57;98561.06;5001379;28;20036;-76
2023/05/09 01:27:32;;;;;;;5.90;5.30;;;;;;;13.69;59.58;98564.66;5001201;28;20560;-76
2023/05/09 01:29:59;;;;;;;5.65;5.15;;;;;;;13.73;58.02;98574.72;5035035;28;20405;-75
2023/05/09 01:32:29;;;;;;;6.18;5.57;;;;;;;13.67;60.85;98570.34;5001532;28;20113;-76
2023/05/09 01:34:55;;;;;;;6.00;5.32;;;;;;;13.69;60.39;98559.25;5000841;28;20048;-76
2023/05/09 01:37:34;;;;;;;6.32;5.72;;;;;;;13.76;58.34;98568.78;5017683;28;20026;-76
2023/05/09 01:40:24;;;;;;;6.43;5.82;;;;;;;13.95;58.34;98560.31;5004091;28;20048;-78
2023/05/09 01:43:02;;;;;;;5.80;5.30;;;;;;;14.00;58.21;98557.66;4988985;28;20025;-78
2023/05/09 01:45:28;;;;;;;7.10;6.32;;;;;;;13.86;58.79;98552.63;4994791;28;20061;-79
2023/05/09 01:47:55;;;;;;;6.60;6.00;;;;;;;14.01;57.89;98553.84;4983803;28;20137;-77
2023/05/09 01:50:21;;;;;;;8.52;6.40;;;;;;;13.84;56.82;98559.38;5002575;28;20475;-77
2023/05/09 01:52:49;;;;;;;6.35;5.57;;;;;;;13.85;57.97;98551.00;5022704;28;20044;-78
2023/05/09 01:55:15;;;;;;;6.35;5.75;;;;;;;13.68;57.96;98534.06;5015047;28;20036;-78
2023/05/09 01:57:42;;;;;;;7.07;6.07;;;;;;;13.91;57.34;98556.47;5005063;28;20055;-78
2023/05/09 02:00:09;;;;;;;7.80;6.30;;;;;;;13.85;56.83;98553.72;5014891;28;20081;-78
2023/05/09 02:02:43;;;;;;;6.65;6.05;;;;;;;13.91;56.00;98548.34;4991401;28;20022;-78
2023/05/09 02:05:10;;;;;;;7.50;6.80;;;;;;;13.69;56.87;98551.94;5005049;28;20033;-78
2023/05/09 02:07:35;;;;;;;6.55;5.60;;;;;;;13.75;56.25;98556.31;5005319;28;20021;-78
2023/05/09 02:10:01;;;;;;;6.43;5.82;;;;;;;13.80;55.84;98548.25;4999330;28;20029;-78
2023/05/09 02:12:27;;;;;;;7.07;6.38;;;;;;;13.93;56.11;98547.03;5014603;28;20050;-78
2023/05/09 02:14:52;;;;;;;7.90;6.18;;;;;;;13.92;55.80;98533.72;4986094;28;20032;-77
2023/05/09 02:17:18;;;;;;;6.95;6.00;;;;;;;14.02;55.18;98539.25;4998969;28;20061;-77
2023/05/09 02:19:43;;;;;;;7.68;6.80;;;;;;;13.95;55.56;98539.47;5002847;28;20481;-78
2023/05/09 02:22:10;;;;;;;7.57;6.75;;;;;;;13.90;56.27;98535.88;4985349;28;20067;-76
2023/05/09 02:24:35;;;;;;;7.10;6.40;;;;;;;13.96;56.28;98540.25;5000436;28;20029;-76
2023/05/09 02:27:01;;;;;;;8.02;7.13;;;;;;;13.77;56.41;98537.09;5030679;28;20498;-75
2023/05/09 02:29:38;;;;;;;7.60;6.40;;;;;;;13.96;56.77;98532.13;5001891;28;20395;-77
2023/05/09 02:32:10;;;;;;;7.43;6.63;;;;;;;13.86;56.93;98536.38;4998058;28;20037;-78
2023/05/09 02:34:36;;;;;;;7.63;6.65;;;;;;;13.79;57.19;98538.47;4981872;28;20044;-78
2023/05/09 02:37:02;;;;;;;8.10;6.80;;;;;;;13.82;56.99;98535.28;5003199;28;20025;-75
2023/05/09 02:39:28;;;;;;;7.97;7.10;;;;;;;13.76;56.71;98530.91;5004749;28;20087;-76
2023/05/09 02:41:54;;;;;;;7.07;6.38;;;;;;;13.77;56.47;98531.69;5004174;28;20049;-75
2023/05/09 02:44:20;;;;;;;7.18;6.47;;;;;;;13.71;56.61;98535.44;5018377;28;20828;-76
2023/05/09 02:46:46;;;;;;;8.27;6.18;;;;;;;13.82;56.52;98529.03;5010296;28;20080;-76
2023/05/09 02:49:13;;;;;;;9.05;6.82;;;;;;;13.59;56.97;98535.59;4977642;28;20049;-76
2023/05/09 02:51:39;;;;;;;9.32;6.75;;;;;;;13.81;57.03;98533.66;5003280;28;20132;-76
2023/05/09 02:54:05;;;;;;;8.32;7.03;;;;;;;13.60;57.29;98531.81;4987346;28;20038;-76
2023/05/09 02:56:30;;;;;;;7.40;6.70;;;;;;;13.65;57.29;98539.97;4984137;28;20022;-77
2023/05/09 02:58:56;;;;;;;7.15;6.45;;;;;;;13.68;57.36;98533.22;5000099;28;20076;-76
2023/05/09 03:01:21;;;;;;;9.05;7.40;;;;;;;13.61;57.26;98517.19;5000898;28;20114;-75
2023/05/09 03:03:47;;;;;;;7.57;6.80;;;;;;;13.77;56.85;98520.88;5001000;28;20045;-75
2023/05/09 03:06:13;;;;;;;8.25;6.53;;;;;;;13.73;57.34;98526.00;4987976;28;20116;-74
2023/05/09 03:08:38;;;;;;;7.20;6.43;;;;;;;13.72;57.22;98521.63;5004224;28;20065;-75
2023/05/09 03:11:04;;;;;;;7.18;6.20;;;;;;;13.75;57.22;98526.53;5033471;28;20029;-75
2023/05/09 03:13:30;;;;;;;7.95;7.15;;;;;;;13.73;57.44;98520.56;5005371;28;20034;-76
2023/05/09 03:15:56;;;;;;;7.45;6.75;;;;;;;13.74;57.52;98514.09;4985564;28;20029;-76
2023/05/09 03:18:22;;;;;;;8.10;7.30;;;;;;;13.69;58.76;98524.88;4995143;28;20461;-76
2023/05/09 03:20:47;;;;;;;7.93;6.43;;;;;;;13.61;58.93;98516.38;4998218;28;20677;-76
2023/05/09 03:23:13;;;;;;;8.05;7.10;;;;;;;13.63;58.17;98515.06;4992874;28;20052;-75
2023/05/09 03:25:38;;;;;;;7.70;6.68;;;;;;;13.83;58.13;98519.84;5000031;28;20570;-75
2023/05/09 03:28:04;;;;;;;8.57;7.18;;;;;;;13.77;57.67;98513.56;5016467;28;20128;-74
2023/05/09 03:30:30;;;;;;;8.00;7.20;;;;;;;13.67;57.15;98505.38;5000019;28;20057;-74
2023/05/09 03:32:56;;;;;;;8.38;6.60;;;;;;;13.55;56.82;98512.81;5003114;28;20042;-75
2023/05/09 03:35:22;;;;;;;8.23;7.43;;;;;;;13.51;57.65;98508.97;4996544;28;20036;-75
2023/05/09 03:37:47;;;;;;;8.20;6.70;;;;;;;13.60;57.02;98499.34;4997301;28;20033;-75
2023/05/09 03:40:12;;;;;;;8.00;7.30;;;;;;;13.60;57.03;98504.75;5007047;28;20025;-76
2023/05/09 03:42:54;;;;;;;7.22;6.53;;;;;;;13.48;57.30;98501.38;5004922;28;20038;-74
2023/05/09 03:45:19;;;;;;;8.80;7.60;;;;;;;13.67;57.26;98499.13;4996283;28;20042;-74
2023/05/09 03:47:46;;;;;;;7.53;6.80;;;;;;;13.69;56.64;98497.81;4994819;28;20029;-74
2023/05/09 03:50:11;;;;;;;8.38;7.50;;;;;;;13.48;57.48;98490.56;4999785;28;20033;-74
2023/05/09 03:52:37;;;;;;;8.20;7.40;;;;;;;13.55;57.83;98490.34;5004361;28;20113;-76
2023/05/09 03:55:05;;;;;;;8.40;7.47;;;;;;;13.57;57.30;98493.63;4998635;28;20044;-76
2023/05/09 03:57:34;;;;;;;8.55;7.65;;;;;;;13.61;57.61;98500.97;4997793;28;20035;-76
2023/05/09 03:59:59;;;;;;;9.40;7.90;;;;;;;13.51;56.64;98492.75;5009643;28;20083;-77
2023/05/09 04:02:25;;;;;;;8.50;7.60;;;;;;;13.57;57.12;98502.56;4977369;28;20506;-77
2023/05/09 04:04:51;;;;;;;9.20;7.65;;;;;;;13.61;57.14;98498.25;4996525;28;20037;-75
2023/05/09 04:07:19;;;;;;;9.75;7.07;;;;;;;13.69;56.50;98505.94;4992636;28;20025;-76
2023/05/09 04:09:45;;;;;;;7.55;6.80;;;;;;;13.59;56.12;98503.13;5011798;28;20030;-76
2023/05/09 04:12:10;;;;;;;10.20;8.10;;;;;;;13.54;56.49;98504.94;5008468;28;20026;-75
2023/05/09 04:14:37;;;;;;;8.68;7.28;;;;;;;13.60;56.09;98509.34;4986597;28;20483;-75
2023/05/09 04:17:02;;;;;;;8.57;7.07;;;;;;;13.60;56.17;98510.19;5001613;28;20025;-74
2023/05/09 04:19:28;;;;;;;8.27;6.90;;;;;;;13.48;56.21;98519.50;4990170;28;20040;-75
2023/05/09 04:21:53;;;;;;;10.65;7.13;;;;;;;13.47;55.63;98521.38;5008296;28;20017;-77
2023/05/09 04:24:19;;;;;;;7.43;6.10;;;;;;;13.75;55.48;98510.31;4970688;28;20036;-76
2023/05/09 04:26:48;;;;;;;8.48;6.30;;;;;;;13.59;55.73;98513.13;5002176;28;20026;-77
2023/05/09 04:29:18;;;;;;;7.85;7.05;;;;;;;13.61;56.29;98506.38;4996970;28;20507;-77
2023/05/09 04:31:49;;;;;;;8.82;7.70;;;;;;;13.57;56.38;98510.69;4981271;28;20036;-76
2023/05/09 04:34:15;;;;;;;8.23;7.40;;;;;;;13.61;55.59;98500.13;4989117;28;20411;-76
2023/05/09 04:36:41;;;;;;;10.77;7.68;;;;;;;13.70;55.84;98514.84;4991310;28;20021;-76
2023/05/09 04:39:07;;;;;;;7.72;6.95;;;;;;;13.55;55.64;98507.41;4994564;28;20036;-76
2023/05/09 04:41:33;;;;;;;8.68;7.38;;;;;;;13.42;56.28;98507.81;4991773;28;20381;-76
2023/05/09 04:43:59;;;;;;;9.95;7.90;;;;;;;13.55;55.80;98514.72;4994471;28;20037;-76
2023/05/09 04:46:25;;;;;;;8.85;7.22;;;;;;;13.66;55.61;98519.13;4991104;28;20030;-76
2023/05/09 04:48:51;;;;;;;7.78;7.07;;;;;;;13.79;55.25;98514.13;4988320;28;20052;-76
2023/05/09 04:51:17;;;;;;;7.85;7.00;;;;;;;13.92;54.54;98517.47;4985230;28;20427;-76
2023/05/09 04:53:43;;;;;;;7.28;6.47;;;;;;;13.70;54.94;98521.06;5004129;28;20030;-76
2023/05/09 04:56:09;;;;;;;6.93;6.20;;;;;;;13.91;54.33;98515.88;4991484;28;20494;-76
2023/05/09 04:58:37;;;;;;;7.55;6.47;;;;;;;13.79;54.73;98508.72;4988014;28;20572;-76
2023/05/09 05:01:05;;;;;;;6.85;5.95;;;;;;;13.93;53.82;98514.53;5011337;28;20025;-76
2023/05/09 05:03:31;;;;;;;8.50;5.70;;;;;;;14.19;53.29;98515.56;4985482;28;20028;-78
2023/05/09 05:05:57;;;;;;;7.00;6.30;;;;;;;14.02;54.06;98512.16;5034972;28;20025;-75
2023/05/09 05:08:23;;;;;;;6.18;5.57;;;;;;;14.00;54.32;98514.31;4986871;28;20026;-76
2023/05/09 05:10:48;;;;;;;8.65;6.25;;;;;;;13.70;54.67;98504.84;5008530;28;20092;-76
2023/05/09 05:13:15;;;;;;;9.23;6.13;;;;;;;13.86;53.57;98503.91;4988095;28;20053;-76
2023/05/09 05:15:44;;;;;;;7.35;6.10;;;;;;;14.06;53.93;98505.16;4984669;28;20099;-75
2023/05/09 05:18:09;;;;;;;7.55;6.00;;;;;;;14.14;53.46;98500.06;5003659;28;20483;-76
2023/05/09 05:20:35;;;;;;;7.20;6.50;;;;;;;14.13;53.76;98508.44;5011538;28;20108;-76
2023/05/09 05:23:00;;;;;;;6.57;5.65;;;;;;;14.01;54.06;98510.50;5013704;28;20029;-76
2023/05/09 05:25:26;;;;;;;7.05;5.70;;;;;;;14.15;53.50;98512.53;4994313;28;20025;-76
2023/05/09 05:27:53;;;;;;;6.63;5.85;;;;;;;14.23;53.74;98500.41;4988444;28;20037;-76
2023/05/09 05:30:19;;;;;;;6.60;6.00;;;;;;;14.34;53.46;98494.00;4997537;28;20026;-76
2023/05/09 05:32:45;;;;;;;5.90;5.30;;;;;;;14.25;53.61;98498.25;4978164;28;20403;-76
2023/05/09 05:35:12;;;;;;;8.07;5.88;;;;;;;14.33;53.56;98497.78;4997322;28;20490;-76
2023/05/09 05:37:38;;;;;;;7.93;6.40;;;;;;;14.14;54.17;98494.63;5003133;28;20029;-76
2023/05/09 05:40:05;;;;;;;7.60;5.75;;;;;;;14.45;53.47;98495.69;4982027;28;20036;-76
2023/05/09 05:42:31;;;;;;;9.85;6.30;;;;;;;14.55;53.48;98493.06;4986635;28;20030;-76
2023/05/09 05:45:03;;;;;;;8.60;6.78;;;;;;;14.56;53.42;98492.00;4974383;28;20029;-76
2023/05/09 05:47:33;;;;;;;7.47;6.25;;;;;;;14.46;53.61;98481.06;5022033;28;20033;-76
2023/05/09 05:50:05;;;;;;;7.50;6.00;;;;;;;14.44;54.39;98481.34;5000361;28;20040;-76
2023/05/09 05:52:30;;;;;;;7.65;6.85;;;;;;;14.55;53.56;98474.06;4984230;28;20030;-76
2023/05/09 05:54:58;;;;;;;7.78;6.80;;;;;;;14.63;53.35;98476.31;4981364;28;20395;-75
2023/05/09 05:57:24;;;;;;;8.13;7.32;;;;;;;14.59;53.82;98474.34;5013511;28;20037;-76
2023/05/09 05:59:50;;;;;;;9.95;7.32;;;;;;;14.48;53.02;98481.63;5015199;28;20021;-76
2023/05/09 06:02:16;;;;;;;8.82;7.78;;;;;;;14.30;53.68;98471.22;5000695;28;20033;-76
2023/05/09 06:04:41;;;;;;;9.20;7.60;;;;;;;14.61;54.25;98478.44;4993971;28;20053;-76
2023/05/09 06:07:07;;;;;;;7.85;6.53;;;;;;;14.33;53.66;98481.53;4993991;28;20126;-76
2023/05/09 06:09:32;;;;;;;7.70;6.75;;;;;;;14.82;53.44;98480.16;4997376;28;20054;-76
2023/05/09 06:11:57;;;;;;;8.15;6.78;;;;;;;14.93;53.01;98465.59;4993599;28;20041;-76
2023/05/09 06:14:24;;;;;;;7.57;6.78;;;;;;;14.46;54.03;98475.66;5003313;28;20021;-75
2023/05/09 06:16:52;;;;;;;7.55;6.75;;;;;;;14.46;53.88;98462.09;4996455;28;20029;-76
2023/05/09 06:19:17;;;;;;;8.75;7.95;;;;;;;14.02;55.99;98471.53;5012663;28;20022;-76
2023/05/09 06:21:43;;;;;;;10.98;7.32;;;;;;;14.47;54.65;98456.41;5000270;28;20502;-76
2023/05/09 06:24:08;;;;;;;9.82;7.63;;;;;;;14.22;54.32;98464.38;5000035;28;20152;-76
2023/05/09 06:26:34;;;;;;;8.25;7.40;;;;;;;14.59;55.37;98468.94;5003690;28;20134;-75
2023/05/09 06:28:59;;;;;;;8.80;7.35;;;;;;;14.64;54.29;98456.22;5013152;28;20030;-76
2023/05/09 06:31:25;;;;;;;8.23;7.43;;;;;;;14.43;54.71;98454.50;5018522;28;20037;-76
2023/05/09 06:33:50;;;;;;;9.52;8.45;;;;;;;14.40;54.48;98453.13;5016674;28;20036;-77
2023/05/09 06:36:15;;;;;;;8.98;7.55;;;;;;;14.49;54.93;98470.50;5004171;28;20034;-76
2023/05/09 06:38:41;;;;;;;8.00;7.20;;;;;;;14.58;54.24;98456.47;5009680;28;20029;-76
2023/05/09 06:41:06;;;;;;;8.30;6.85;;;;;;;14.69;54.00;98456.25;5009041;28;20480;-76
2023/05/09 06:43:32;;;;;;;7.32;6.63;;;;;;;14.72;53.45;98453.03;5002268;28;20031;-76
2023/05/09 06:45:57;;;;;;;8.45;6.95;;;;;;;14.44;53.59;98458.84;5021331;28;20507;-76
2023/05/09 06:48:22;;;;;;;7.13;6.03;;;;;;;14.51;53.89;98452.13;4977087;28;20026;-76
2023/05/09 06:50:48;;;;;;;8.05;6.22;;;;;;;14.48;53.50;98452.63;5008878;28;20041;-76
2023/05/09 06:53:14;;;;;;;8.32;6.40;;;;;;;14.52;53.32;98452.91;4986292;28;20123;-76
2023/05/09 06:55:39;;;;;;;7.55;5.97;;;;;;;14.80;52.78;98443.53;5003834;28;20049;-76
2023/05/09 06:58:05;;;;;;;7.00;6.30;;;;;;;14.82;53.44;98444.13;4993090;28;20033;-76
2023/05/09 07:00:30;;;;;;;7.22;6.15;;;;;;;14.91;54.13;98429.75;5008274;28;20049;-76
2023/05/09 07:02:56;;;;;;;6.55;6.03;;;;;;;15.03;53.54;98427.63;4986396;28;20078;-76
2023/05/09 07:05:21;;;;;;;6.05;5.55;;;;;;;15.08;53.94;98432.25;5003705;28;20430;-76
2023/05/09 07:07:47;;;;;;;6.03;5.35;;;;;;;15.45;52.95;98430.19;4992925;28;20040;-76
2023/05/09 07:10:12;;;;;;;6.45;5.30;;;;;;;15.73;52.74;98431.56;5007738;28;20498;-76
2023/05/09 07:12:38;;;;;;;6.43;5.50;;;;;;;15.68;51.80;98423.44;5015339;28;20072;-76
2023/05/09 07:15:05;;;;;;;6.25;5.65;;;;;;;15.97;51.47;98427.22;4999197;28;20129;-76
2023/05/09 07:17:30;;;;;;;6.05;5.43;;;;;;;15.94;53.16;98422.31;4999208;28;20029;-76
2023/05/09 07:19:55;;;;;;;6.00;5.40;;;;;;;15.64;52.81;98422.31;5033316;28;20112;-76
2023/05/09 07:22:21;;;;;;;6.95;5.82;;;;;;;15.88;51.13;98413.38;4986182;28;20360;-76
2023/05/09 07:24:46;;;;;;;6.53;5.80;;;;;;;15.62;52.92;98413.63;5003868;28;20133;-76
2023/05/09 07:27:12;;;;;;;7.05;5.63;;;;;;;15.70;52.31;98426.69;5026537;28;20464;-76
2023/05/09 07:29:37;;;;;;;6.72;5.50;;;;;;;15.62;51.92;98408.22;4990538;28;20060;-76
2023/05/09 07:32:02;;;;;;;7.05;5.88;;;;;;;15.95;50.35;98412.25;5019642;28;20410;-75
2023/05/09 07:34:28;;;;;;;5.88;5.25;;;;;;;16.02;51.21;98410.91;5004329;28;20037;-75
2023/05/09 07:36:53;;;;;;;9.75;5.72;;;;;;;16.11;51.72;98409.25;4999979;28;20072;-76
2023/05/09 07:39:18;;;;;;;5.88;5.28;;;;;;;16.34;50.98;98395.06;5038099;23;20038;-77
2023/05/09 07:41:44;;;;;;;6.03;5.40;;;;;;;16.34;50.64;98400.50;5017072;28;20125;-76
2023/05/09 07:44:09;;;;;;;8.55;5.25;;;;;;;16.65;50.14;98389.56;5022363;28;20037;-76
2023/05/09 07:46:36;;;;;;;8.43;4.72;;;;;;;16.90;48.91;98383.97;5019700;28;20053;-75
2023/05/09 07:49:02;;;;;;;7.25;5.80;;;;;;;16.87;50.09;98381.84;5020879;28;20041;-76
2023/05/09 07:51:27;;;;;;;7.68;5.40;;;;;;;17.02;49.22;98392.63;5011795;28;20117;-75
2023/05/09 07:53:54;;;;;;;5.95;5.38;;;;;;;16.81;48.14;98382.94;5011486;28;20534;-76
2023/05/09 07:56:21;;;;;;;11.15;5.70;;;;;;;16.89;50.45;98385.09;5008729;28;20129;-76
2023/05/09 07:58:47;;;;;;;6.05;5.43;;;;;;;16.79;48.81;98374.25;5006865;28;20082;-77
2023/05/09 08:01:12;;;;;;;7.68;4.90;;;;;;;17.14;48.56;98379.50;4982304;28;20432;-77
2023/05/09 08:03:38;;;;;;;5.45;4.90;;;;;;;17.22;48.68;98368.03;4994386;28;20034;-76
2023/05/09 08:06:03;;;;;;;6.88;5.00;;;;;;;17.38;47.57;98366.81;4994519;28;20388;-75
2023/05/09 08:08:28;;;;;;;4.82;4.43;;;;;;;17.31;47.75;98370.94;4975574;28;20034;-76
2023/05/09 08:10:54;;;;;;;5.57;4.95;;;;;;;17.37;48.28;98365.19;4991843;28;20396;-76
2023/05/09 08:13:21;;;;;;;6.00;4.78;;;;;;;17.64;46.08;98359.28;4975482;28;20415;-76
2023/05/09 08:15:46;;;;;;;7.82;4.85;;;;;;;17.48;45.26;98355.81;4991624;28;20050;-76
2023/05/09 08:18:12;;;;;;;5.63;4.63;;;;;;;17.66;46.04;98355.19;5003551;28;20069;-73
2023/05/09 08:20:37;;;;;;;5.85;5.18;;;;;;;17.31;47.31;98355.44;4993818;28;20045;-76
2023/05/09 08:23:02;;;;;;;5.68;5.18;;;;;;;17.27;47.57;98346.19;4984996;28;20044;-76
2023/05/09 08:25:28;;;;;;;5.97;5.15;;;;;;;17.11;47.65;98350.13;5026029;28;20088;-75
2023/05/09 08:27:53;;;;;;;6.70;5.00;;;;;;;17.14;47.97;98344.94;5009822;28;20124;-75
2023/05/09 08:30:19;;;;;;;7.13;4.82;;;;;;;17.14;49.67;98333.22;5012064;28;20091;-75
2023/05/09 08:32:44;;;;;;;6.10;4.97;;;;;;;17.75;47.33;98323.50;5010659;28;20406;-75
2023/05/09 08:35:10;;;;;;;7.22;5.35;;;;;;;18.09;46.41;98322.56;4994441;28;20030;-74
2023/05/09 08:37:35;;;;;;;6.22;5.35;;;;;;;18.24;47.43;98330.59;5010527;28;20033;-76
2023/05/09 08:40:03;;;;;;;5.13;4.63;;;;;;;18.46;46.49;98323.50;4982306;28;20447;-76
2023/05/09 08:42:31;;;;;;;5.20;4.70;;;;;;;18.35;45.93;98313.00;4970063;28;20442;-75
2023/05/09 08:44:56;;;;;;;7.38;5.00;;;;;;;17.91;44.11;98311.31;4999661;28;20034;-74
2023/05/09 08:47:22;;;;;;;6.20;4.68;;;;;;;17.99;46.20;98315.34;5001475;28;20471;-75
2023/05/09 08:49:49;;;;;;;6.25;4.75;;;;;;;18.44;43.41;98311.25;4988980;28;20034;-75
2023/05/09 08:52:14;;;;;;;5.43;4.18;;;;;;;18.43;42.87;98302.28;5006458;28;20091;-75
2023/05/09 08:54:40;;;;;;;6.57;4.75;;;;;;;18.59;42.44;98308.38;5006773;28;20034;-75
2023/05/09 08:57:05;;;;;;;7.60;5.10;;;;;;;18.50;42.31;98291.84;4991278;28;20034;-76
2023/05/09 08:59:33;;;;;;;6.05;4.20;;;;;;;18.61;43.48;98295.25;4966123;28;20030;-75
2023/05/09 09:01:59;;;;;;;4.80;3.95;;;;;;;18.88;42.38;98287.19;4986323;28;20030;-75
2023/05/09 09:04:24;;;;;;;6.50;4.40;;;;;;;18.94;41.44;98287.94;4974367;28;20385;-75
2023/05/09 09:06:50;;;;;;;5.72;3.95;;;;;;;18.98;41.71;98287.06;4991569;28;20038;-74
2023/05/09 09:09:16;;;;;;;6.57;4.70;;;;;;;18.70;43.24;98285.28;4993807;28;20022;-74
2023/05/09 09:11:41;;;;;;;4.05;3.65;;;;;;;18.80;41.83;98271.50;4985425;28;20042;-74
2023/05/09 09:14:12;;;;;;;6.28;3.65;;;;;;;18.72;38.01;98276.81;4981156;28;20026;-74
2023/05/09 09:16:40;;;;;;;5.55;3.50;;;;;;;19.11;40.96;98275.38;4998200;28;20407;-74
2023/05/09 09:19:09;;;;;;;6.07;3.35;;;;;;;19.10;39.28;98276.50;5009760;28;20034;-75
2023/05/09 09:21:35;;;;;;;4.45;3.65;;;;;;;19.25;38.89;98265.31;4998712;28;20046;-75
2023/05/09 09:24:01;;;;;;;4.43;3.80;;;;;;;19.37;38.67;98266.81;4990659;28;20064;-75
2023/05/09 09:26:30;;;;;;;4.15;3.83;;;;;;;19.05;41.28;98254.72;5002471;28;20308;-74
2023/05/09 09:28:56;;;;;;;4.05;3.63;;;;;;;19.34;41.03;98257.25;4998354;28;20025;-75
2023/05/09 09:31:23;;;;;;;5.25;3.70;;;;;;;19.62;39.21;98256.25;4978677;28;20494;-74
2023/05/09 09:33:48;;;;;;;4.30;3.60;;;;;;;19.21;39.29;98253.38;4996911;28;20018;-75
2023/05/09 09:36:14;;;;;;;3.95;3.38;;;;;;;19.63;37.25;98254.31;5014036;28;20038;-75
2023/05/09 09:38:42;;;;;;;6.55;3.28;;;;;;;19.13;38.12;98255.97;5001983;28;20048;-75
2023/05/09 09:41:10;;;;;;;3.97;3.15;;;;;;;19.91;38.22;98247.75;5001503;28;20046;-74
2023/05/09 09:43:35;;;;;;;4.90;3.33;;;;;;;19.85;37.56;98247.06;4994159;28;20205;-74
2023/05/09 09:46:01;;;;;;;4.70;3.30;;;;;;;19.87;39.43;98233.06;4994552;28;20118;-74
2023/05/09 09:48:33;;;;;;;4.20;3.30;;;;;;;19.91;38.50;98228.63;5001059;28;20193;-74
2023/05/09 09:51:10;;;;;;;4.63;3.55;;;;;;;20.12;38.98;98229.81;5000793;28;20121;-74
2023/05/09 09:53:42;;;;;;;4.07;3.30;;;;;;;20.10;37.12;98218.38;4989975;28;20491;-74
2023/05/09 09:56:07;;;;;;;3.95;3.10;;;;;;;20.16;35.77;98219.09;5000584;28;20124;-74
2023/05/09 09:58:33;;;;;;;3.50;3.10;;;;;;;19.99;36.00;98208.78;5004945;28;20050;-75
2023/05/09 10:01:09;;;;;;;4.05;3.22;;;;;;;20.18;35.29;98205.94;5007067;28;20026;-74
2023/05/09 10:03:39;;;;;;;3.55;3.13;;;;;;;20.21;36.48;98189.69;4993767;28;20034;-74
2023/05/09 10:06:09;;;;;;;3.58;3.15;;;;;;;20.41;34.46;98194.78;4994179;28;20042;-74
2023/05/09 10:08:34;;;;;;;2.92;2.63;;;;;;;20.37;34.33;98204.72;5005217;28;20038;-74
2023/05/09 10:11:00;;;;;;;3.40;2.85;;;;;;;20.65;35.28;98200.75;4996416;28;20472;-74
2023/05/09 10:13:27;;;;;;;4.38;3.10;;;;;;;20.82;35.63;98202.03;4981946;28;20026;-75
2023/05/09 10:15:53;;;;;;;6.07;3.03;;;;;;;20.57;37.99;98192.50;4986496;28;20575;-76
2023/05/09 10:18:25;;;;;;;3.15;2.83;;;;;;;20.50;35.59;98181.97;4993644;28;20102;-76
2023/05/09 10:20:50;;;;;;;5.18;3.40;;;;;;;20.56;33.34;98180.72;5006798;28;20049;-76
2023/05/09 10:23:16;;;;;;;3.28;2.97;;;;;;;20.68;33.08;98174.69;5005770;28;20033;-76
2023/05/09 10:25:56;;;;;;;4.03;2.88;;;;;;;20.81;36.64;98181.25;5001002;28;20038;-76
2023/05/09 10:28:24;;;;;;;5.90;3.00;;;;;;;20.83;33.60;98174.34;4998730;28;20038;-76
2023/05/09 10:30:52;;;;;;;2.97;2.70;;;;;;;21.23;33.04;98158.84;4994153;28;20496;-75
2023/05/09 10:33:26;;;;;;;2.65;2.45;;;;;;;21.16;33.32;98150.28;4993312;28;20041;-75
2023/05/09 10:35:54;;;;;;;3.95;2.67;;;;;;;21.40;33.25;98139.72;4986573;28;20049;-76
2023/05/09 10:38:20;;;;;;;7.60;2.92;;;;;;;21.27;32.19;98135.16;4994087;28;20037;-75
2023/05/09 10:40:46;;;;;;;3.03;2.72;;;;;;;21.67;36.91;98138.72;5012723;28;20038;-75
2023/05/09 10:43:12;;;;;;;3.30;2.63;;;;;;;21.09;32.96;98133.47;5009810;28;20054;-75
2023/05/09 10:45:38;;;;;;;3.72;2.58;;;;;;;21.26;34.32;98122.63;4985515;28;20065;-74
2023/05/09 10:48:05;;;;;;;3.67;2.67;;;;;;;21.44;34.47;98124.28;4983338;28;20518;-74
2023/05/09 10:50:31;;;;;;;3.38;2.53;;;;;;;21.52;30.28;98126.25;5003379;28;20045;-73
2023/05/09 10:53:06;;;;;;;3.00;2.53;;;;;;;21.84;30.73;98114.91;4992736;28;20026;-73
2023/05/09 10:55:41;;;;;;;4.33;2.40;;;;;;;21.82;31.11;98108.91;5004843;28;20391;-73
2023/05/09 10:58:35;;;;;;;2.85;2.50;;;;;;;21.53;29.86;98114.19;5025122;28;20069;-73
2023/05/09 11:01:01;;;;;;;3.80;2.50;;;;;;;21.27;33.77;98099.56;5007006;28;20124;-75
2023/05/09 11:03:27;;;;;;;9.15;2.58;;;;;;;21.36;29.00;98100.41;5003230;28;20018;-74
2023/05/09 11:05:57;;;;;;;2.75;2.50;;;;;;;21.49;29.63;98088.53;5005911;28;20168;-74
2023/05/09 11:08:24;;;;;;;4.25;2.60;;;;;;;21.96;29.41;98075.94;5012339;28;20022;-74
2023/05/09 11:10:51;;;;;;;4.13;2.42;;;;;;;22.20;29.60;98080.94;5008684;28;20065;-74
2023/05/09 11:13:23;;;;;;;3.17;2.42;;;;;;;22.20;28.54;98075.44;4986248;28;20094;-74
2023/05/09 11:15:58;;;;;;;4.40;2.63;;;;;;;22.46;30.53;98073.50;4983013;28;20039;-75
2023/05/09 11:18:24;;;;;;;3.40;2.42;;;;;;;22.26;28.75;98066.75;5003002;28;20037;-74
2023/05/09 11:20:50;;;;;;;3.40;2.25;;;;;;;22.40;29.29;98072.06;5000427;28;20023;-74
2023/05/09 11:23:19;;;;;;;3.63;2.40;;;;;;;22.09;28.71;98052.22;5009286;28;20030;-74
2023/05/09 11:25:46;;;;;;;3.97;2.15;;;;;;;22.38;28.70;98044.91;5002031;28;20025;-74
2023/05/09 11:28:28;;;;;;;5.15;2.45;;;;;;;22.37;29.41;98045.25;4999554;28;20045;-75
2023/05/09 11:31:08;;;;;;;6.85;2.63;;;;;;;22.19;30.90;98046.41;4981183;28;20506;-75
2023/05/09 11:33:35;;;;;;;3.03;2.22;;;;;;;22.41;28.76;98032.50;5002197;28;20068;-75